Time;durP1;ratioP1;P1;durP2;ratioP2;P2;SDS_P1;SDS_P2;PMS_P1;PMS_P2;Temp;Humidity;BMP_temperature;BMP_pressure;BME280_temperature;BME280_humidity;BME280_pressure;Samples;Min_cycle;Max_cycle;Signal;HPM_P1;HPM_P2
2022/10/28 00:01:33;;;;;;;16.10;9.15;;;15.90;99.90;;;;;;5068484;28;20416;-58
2022/10/28 00:03:59;;;;;;;17.13;9.10;;;15.80;99.90;;;;;;5065868;28;20055;-58
2022/10/28 00:06:31;;;;;;;15.53;9.43;;;15.80;99.90;;;;;;5065574;28;20135;-59
2022/10/28 00:08:57;;;;;;;15.50;9.38;;;15.80;99.90;;;;;;5064373;28;20398;-58
2022/10/28 00:11:29;;;;;;;14.60;9.80;;;15.70;99.90;;;;;;5066168;28;20485;-57
2022/10/28 00:13:56;;;;;;;15.15;9.52;;;15.70;99.90;;;;;;5065741;28;20564;-58
2022/10/28 00:16:28;;;;;;;18.80;9.88;;;15.60;99.90;;;;;;5070946;28;20465;-58
2022/10/28 00:18:54;;;;;;;17.33;9.82;;;15.60;99.90;;;;;;5069030;28;20049;-56
2022/10/28 00:21:24;;;;;;;18.40;9.52;;;15.50;99.90;;;;;;5071362;28;20060;-56
2022/10/28 00:23:50;;;;;;;17.88;9.27;;;15.50;99.90;;;;;;5067673;28;20041;-57
2022/10/28 00:26:18;;;;;;;14.95;9.20;;;15.50;99.90;;;;;;5064077;28;20040;-59
2022/10/28 00:28:51;;;;;;;19.52;9.43;;;15.50;99.90;;;;;;5059394;28;20466;-57
2022/10/28 00:31:20;;;;;;;17.80;9.88;;;15.60;99.90;;;;;;5065702;28;20029;-58
2022/10/28 00:33:46;;;;;;;15.80;10.18;;;15.70;99.90;;;;;;5065360;28;20041;-58
2022/10/28 00:36:32;;;;;;;16.13;8.85;;;15.70;99.90;;;;;;5065182;28;20082;-58
2022/10/28 00:38:58;;;;;;;17.48;9.48;;;15.70;99.90;;;;;;5064764;28;20040;-58
2022/10/28 00:41:29;;;;;;;14.68;9.52;;;15.70;99.90;;;;;;5065215;28;20041;-58
2022/10/28 00:44:33;;;;;;;15.20;9.15;;;15.70;99.90;;;;;;5065000;28;20048;-58
2022/10/28 00:46:59;;;;;;;16.02;9.32;;;15.70;99.90;;;;;;5060757;28;20049;-59
2022/10/28 00:49:30;;;;;;;18.60;10.18;;;15.70;99.90;;;;;;5066597;28;20044;-58
2022/10/28 00:52:07;;;;;;;21.63;9.70;;;15.60;99.90;;;;;;5066244;28;20052;-58
2022/10/28 00:54:34;;;;;;;12.85;9.82;;;15.60;99.90;;;;;;5061155;28;20044;-58
2022/10/28 00:57:02;;;;;;;18.15;9.95;;;15.60;99.90;;;;;;5061551;28;20608;-59
2022/10/28 00:59:33;;;;;;;17.27;9.73;;;15.50;99.90;;;;;;5065760;28;20048;-59
2022/10/28 01:02:00;;;;;;;14.23;9.23;;;15.50;99.90;;;;;;5064475;28;20040;-58
2022/10/28 01:04:26;;;;;;;18.50;10.32;;;15.50;99.90;;;;;;5061216;28;20063;-56
2022/10/28 01:06:52;;;;;;;15.65;9.35;;;15.50;99.90;;;;;;5063166;28;20044;-58
2022/10/28 01:09:17;;;;;;;21.52;9.00;;;15.40;99.90;;;;;;5063108;28;20036;-59
2022/10/28 01:12:01;;;;;;;16.85;9.38;;;15.40;99.90;;;;;;5068222;28;20040;-58
2022/10/28 01:14:30;;;;;;;15.98;10.10;;;15.40;99.90;;;;;;5066395;28;20119;-58
2022/10/28 01:17:17;;;;;;;15.13;9.60;;;15.40;99.90;;;;;;5064973;28;20132;-59
2022/10/28 01:20:21;;;;;;;21.38;10.35;;;15.40;99.90;;;;;;5062366;28;20405;-58
2022/10/28 01:23:03;;;;;;;16.70;10.45;;;15.30;99.90;;;;;;5063755;28;20094;-58
2022/10/28 01:25:47;;;;;;;16.13;9.40;;;15.40;99.90;;;;;;5048936;28;20055;-58
2022/10/28 01:28:27;;;;;;;14.60;9.80;;;15.40;99.90;;;;;;5064967;28;20067;-58
2022/10/28 01:31:17;;;;;;;17.77;9.60;;;15.40;99.90;;;;;;5061337;28;20062;-59
2022/10/28 01:33:53;;;;;;;13.45;9.07;;;15.30;99.90;;;;;;5065822;28;20051;-58
2022/10/28 01:36:37;;;;;;;19.15;9.77;;;15.30;99.90;;;;;;5067433;28;20068;-58
2022/10/28 01:39:15;;;;;;;21.40;9.48;;;15.20;99.90;;;;;;5065503;28;20119;-59
2022/10/28 01:41:46;;;;;;;21.55;9.35;;;15.20;99.90;;;;;;5066538;28;20102;-59
2022/10/28 01:44:18;;;;;;;19.80;9.80;;;15.20;99.90;;;;;;5065258;28;20067;-58
2022/10/28 01:46:51;;;;;;;17.10;9.38;;;15.10;99.90;;;;;;5064695;28;20045;-57
2022/10/28 01:49:33;;;;;;;17.95;9.05;;;15.10;99.90;;;;;;5065236;28;20396;-58
2022/10/28 01:52:04;;;;;;;16.45;8.90;;;15.10;99.90;;;;;;5064760;28;20079;-58
2022/10/28 01:54:33;;;;;;;16.10;8.85;;;15.10;99.90;;;;;;5065667;28;20642;-58
2022/10/28 01:57:01;;;;;;;15.75;9.32;;;15.10;99.90;;;;;;5065525;28;20505;-58
2022/10/28 01:59:27;;;;;;;;;;;15.00;99.90;;;;;;5066607;28;20119;-58
2022/10/28 02:01:54;;;;;;;17.23;9.07;;;15.00;99.90;;;;;;5067535;28;19956;-59
2022/10/28 02:04:19;;;;;;;15.23;9.50;;;15.00;99.90;;;;;;5066686;28;20048;-56
2022/10/28 02:06:48;;;;;;;14.23;8.93;;;14.90;99.90;;;;;;5066401;28;20052;-58
2022/10/28 02:09:39;;;;;;;15.45;8.90;;;15.00;99.90;;;;;;5063993;28;20040;-58
2022/10/28 02:12:10;;;;;;;17.38;9.43;;;15.00;99.90;;;;;;5065659;28;20145;-58
2022/10/28 02:15:00;;;;;;;12.75;9.48;;;14.90;99.90;;;;;;5061988;28;20178;-57
2022/10/28 02:17:51;;;;;;;15.15;8.63;;;14.90;99.90;;;;;;5062058;28;20631;-57
2022/10/28 02:20:39;;;;;;;15.55;9.52;;;14.90;99.90;;;;;;5063972;28;20458;-57
2022/10/28 02:23:35;;;;;;;14.85;9.60;;;14.90;99.90;;;;;;5046297;28;20040;-57
2022/10/28 02:26:20;;;;;;;16.33;8.97;;;14.80;99.90;;;;;;5062211;28;20051;-56
2022/10/28 02:29:15;;;;;;;17.45;9.80;;;14.80;99.90;;;;;;5060028;28;20763;-59
2022/10/28 02:31:52;;;;;;;17.23;9.82;;;14.70;99.90;;;;;;5039973;28;20056;-58
2022/10/28 02:34:27;;;;;;;15.65;9.40;;;14.70;99.90;;;;;;5066079;28;20052;-58
2022/10/28 02:36:56;;;;;;;16.20;9.60;;;14.70;99.90;;;;;;5066577;28;20048;-58
2022/10/28 02:39:30;;;;;;;18.70;10.20;;;14.60;99.90;;;;;;5051643;28;20033;-59
2022/10/28 02:42:17;;;;;;;15.48;10.05;;;14.60;99.90;;;;;;5067746;28;20113;-58
2022/10/28 02:44:48;;;;;;;20.33;10.38;;;14.60;99.90;;;;;;5068419;28;20490;-56
2022/10/28 02:47:19;;;;;;;17.50;9.75;;;14.70;99.90;;;;;;5071356;28;20540;-58
2022/10/28 02:49:49;;;;;;;18.92;10.43;;;14.50;99.90;;;;;;5065869;28;20037;-56
2022/10/28 02:52:16;;;;;;;18.75;10.02;;;14.50;99.90;;;;;;5068343;28;20048;-57
2022/10/28 02:54:48;;;;;;;14.77;10.23;;;14.50;99.90;;;;;;5069545;28;20045;-57
2022/10/28 02:57:18;;;;;;;15.23;10.52;;;14.40;99.90;;;;;;5069806;28;21464;-57
2022/10/28 02:59:55;;;;;;;18.70;10.98;;;14.30;99.90;;;;;;5065430;28;20052;-59
2022/10/28 03:02:21;;;;;;;18.85;10.57;;;14.30;99.90;;;;;;5065033;28;20047;-57
2022/10/28 03:04:46;;;;;;;16.42;10.38;;;14.30;99.90;;;;;;5068511;28;20048;-57
2022/10/28 03:07:12;;;;;;;17.92;10.38;;;14.30;99.90;;;;;;5033707;28;20060;-57
2022/10/28 03:09:38;;;;;;;14.68;10.15;;;14.20;99.90;;;;;;5063647;28;20036;-57
2022/10/28 03:12:04;;;;;;;17.00;10.50;;;14.20;99.90;;;;;;5069630;28;20056;-57
2022/10/28 03:14:29;;;;;;;17.58;10.82;;;14.20;99.90;;;;;;5069659;28;20045;-56
2022/10/28 03:16:55;;;;;;;19.65;10.75;;;14.10;99.90;;;;;;5071020;28;20044;-57
2022/10/28 03:19:20;;;;;;;16.65;11.77;;;14.00;99.90;;;;;;5067018;28;20078;-58
2022/10/28 03:21:46;;;;;;;20.23;12.23;;;14.10;99.90;;;;;;5066837;28;20040;-58
2022/10/28 03:24:11;;;;;;;18.50;11.27;;;14.00;99.90;;;;;;5065294;28;20411;-56
2022/10/28 03:26:37;;;;;;;19.08;11.25;;;14.00;99.90;;;;;;5067060;28;20036;-57
2022/10/28 03:29:03;;;;;;;22.13;10.63;;;14.00;99.90;;;;;;5066696;28;20552;-57
2022/10/28 03:31:28;;;;;;;18.30;11.30;;;13.90;99.90;;;;;;5071256;28;20044;-58
2022/10/28 03:33:54;;;;;;;18.80;11.40;;;13.90;99.90;;;;;;5066316;28;20402;-58
2022/10/28 03:36:20;;;;;;;19.75;10.93;;;13.90;99.90;;;;;;5067551;28;20036;-57
2022/10/28 03:38:45;;;;;;;17.58;11.55;;;13.90;99.90;;;;;;5065187;28;20235;-57
2022/10/28 03:41:11;;;;;;;16.67;10.80;;;13.80;99.90;;;;;;5051364;28;20426;-56
2022/10/28 03:43:37;;;;;;;19.95;12.02;;;13.80;99.90;;;;;;5047060;28;20533;-57
2022/10/28 03:46:02;;;;;;;17.88;11.30;;;13.80;99.90;;;;;;5053293;28;20055;-58
2022/10/28 03:48:28;;;;;;;14.77;10.77;;;13.80;99.90;;;;;;5067619;28;20044;-56
2022/10/28 03:50:54;;;;;;;21.60;11.30;;;13.80;99.90;;;;;;5050672;28;20102;-58
2022/10/28 03:53:21;;;;;;;16.45;11.50;;;13.80;99.90;;;;;;5067310;28;20040;-58
2022/10/28 03:55:57;;;;;;;20.52;11.52;;;13.90;99.90;;;;;;5067703;28;20154;-57
2022/10/28 03:58:24;;;;;;;15.73;11.32;;;13.90;99.90;;;;;;5066828;28;20079;-59
2022/10/28 04:00:50;;;;;;;17.42;11.23;;;13.90;99.90;;;;;;5067856;28;20055;-60
2022/10/28 04:03:17;;;;;;;18.02;10.77;;;13.90;99.90;;;;;;5067779;28;20060;-61
2022/10/28 04:05:43;;;;;;;19.23;11.05;;;13.90;99.90;;;;;;5064356;28;20072;-60
2022/10/28 04:08:10;;;;;;;18.98;10.98;;;13.90;99.90;;;;;;5062952;28;20044;-59
2022/10/28 04:10:35;;;;;;;17.98;10.35;;;14.00;99.90;;;;;;5065259;28;20528;-59
2022/10/28 04:13:03;;;;;;;19.38;10.35;;;14.10;99.90;;;;;;5066305;28;20032;-59
2022/10/28 04:15:29;;;;;;;15.75;9.70;;;14.10;99.90;;;;;;5064570;28;22013;-60
2022/10/28 04:17:55;;;;;;;14.30;9.88;;;14.20;99.90;;;;;;5068050;28;20036;-60
2022/10/28 04:20:21;;;;;;;18.10;9.48;;;14.30;99.90;;;;;;5066658;28;20039;-60
2022/10/28 04:22:46;;;;;;;15.98;9.38;;;14.30;99.90;;;;;;5066452;28;20163;-59
2022/10/28 04:25:12;;;;;;;21.92;10.05;;;14.40;99.90;;;;;;5065386;28;20203;-57
2022/10/28 04:27:37;;;;;;;15.52;8.70;;;14.40;99.90;;;;;;5066510;28;20444;-59
2022/10/28 04:30:03;;;;;;;13.65;8.60;;;14.40;99.90;;;;;;5070351;28;20451;-58
2022/10/28 04:32:29;;;;;;;19.42;9.00;;;14.40;99.90;;;;;;5066345;28;20044;-58
2022/10/28 04:34:55;;;;;;;14.90;9.02;;;14.40;99.90;;;;;;5065725;28;20036;-58
2022/10/28 04:37:21;;;;;;;13.70;8.88;;;14.60;99.90;;;;;;5065926;28;20080;-57
2022/10/28 04:39:46;;;;;;;18.75;9.15;;;14.70;99.90;;;;;;5065228;28;20131;-58
2022/10/28 04:42:12;;;;;;;15.93;10.32;;;14.70;99.90;;;;;;5065166;28;20033;-59
2022/10/28 04:44:38;;;;;;;20.50;9.88;;;14.80;99.90;;;;;;5063554;28;20041;-58
2022/10/28 04:47:03;;;;;;;17.42;9.27;;;14.90;99.90;;;;;;5067366;28;20036;-59
2022/10/28 04:49:29;;;;;;;15.98;9.38;;;14.90;99.90;;;;;;5066474;28;20489;-58
2022/10/28 04:51:55;;;;;;;17.63;9.90;;;14.80;99.90;;;;;;5068904;28;20040;-58
2022/10/28 04:54:20;;;;;;;20.38;9.82;;;15.00;99.90;;;;;;5067387;28;20117;-59
2022/10/28 04:56:46;;;;;;;20.17;9.50;;;15.00;99.90;;;;;;5067519;28;20048;-59
2022/10/28 04:59:12;;;;;;;18.90;9.70;;;14.90;99.90;;;;;;5065428;28;20032;-58
2022/10/28 05:01:37;;;;;;;17.30;9.18;;;14.90;99.90;;;;;;5067246;28;20489;-59
2022/10/28 05:04:03;;;;;;;15.93;9.25;;;14.90;99.90;;;;;;5065284;28;20089;-58
2022/10/28 05:06:28;;;;;;;16.67;9.73;;;14.90;99.90;;;;;;5065830;28;20074;-59
2022/10/28 05:08:54;;;;;;;17.30;9.60;;;15.00;99.90;;;;;;5063027;28;20075;-58
2022/10/28 05:11:20;;;;;;;16.98;9.10;;;15.00;99.90;;;;;;5066790;28;20079;-59
2022/10/28 05:13:45;;;;;;;15.73;8.88;;;15.00;99.90;;;;;;5064568;28;20052;-59
2022/10/28 05:16:11;;;;;;;14.38;9.75;;;15.00;99.90;;;;;;5067691;28;20040;-58
2022/10/28 05:18:37;;;;;;;18.17;9.07;;;15.00;99.90;;;;;;5065170;28;20151;-59
2022/10/28 05:21:02;;;;;;;18.55;10.65;;;15.10;99.90;;;;;;5067908;28;20090;-58
2022/10/28 05:23:28;;;;;;;15.20;9.45;;;15.00;99.90;;;;;;5042974;28;20041;-58
2022/10/28 05:25:54;;;;;;;18.45;9.32;;;15.00;99.90;;;;;;5048385;28;20040;-58
2022/10/28 05:28:20;;;;;;;19.20;9.63;;;15.00;99.90;;;;;;5062829;28;20036;-58
2022/10/28 05:30:46;;;;;;;16.05;9.10;;;15.10;99.90;;;;;;5066623;28;20044;-59
2022/10/28 05:33:12;;;;;;;14.75;8.88;;;15.10;99.90;;;;;;5061073;28;20044;-58
2022/10/28 05:35:38;;;;;;;16.83;8.88;;;15.00;99.90;;;;;;5043634;28;20037;-60
2022/10/28 05:38:04;;;;;;;18.92;9.82;;;15.00;99.90;;;;;;5062575;28;20045;-59
2022/10/28 05:40:31;;;;;;;17.30;9.43;;;15.10;99.90;;;;;;5066868;28;20521;-58
2022/10/28 05:42:57;;;;;;;25.48;9.23;;;15.00;99.90;;;;;;5061511;28;20139;-57
2022/10/28 05:45:23;;;;;;;18.10;9.10;;;15.00;99.90;;;;;;5061783;28;20476;-59
2022/10/28 05:47:48;;;;;;;17.20;8.65;;;15.00;99.90;;;;;;5061376;28;20064;-58
2022/10/28 05:50:16;;;;;;;16.45;8.65;;;15.00;99.90;;;;;;5062442;28;20106;-59
2022/10/28 05:52:54;;;;;;;16.42;8.95;;;15.00;99.90;;;;;;5061891;28;20040;-57
2022/10/28 05:55:21;;;;;;;15.68;8.02;;;15.00;99.90;;;;;;5060445;28;20032;-57
2022/10/28 05:57:48;;;;;;;17.20;8.13;;;15.00;99.90;;;;;;5063767;28;20040;-60
2022/10/28 06:00:15;;;;;;;17.60;8.93;;;15.00;99.90;;;;;;5065746;28;20463;-58
2022/10/28 06:02:41;;;;;;;16.25;8.30;;;15.10;99.90;;;;;;5069399;28;20056;-59
2022/10/28 06:05:08;;;;;;;15.75;8.15;;;15.10;99.90;;;;;;5067854;28;20054;-59
2022/10/28 06:07:34;;;;;;;15.90;8.27;;;15.20;99.90;;;;;;5061459;28;20044;-59
2022/10/28 06:10:01;;;;;;;18.23;7.72;;;15.10;99.90;;;;;;5046798;28;20647;-58
2022/10/28 06:12:26;;;;;;;16.73;7.95;;;15.10;99.90;;;;;;5066504;28;20120;-57
2022/10/28 06:14:55;;;;;;;16.40;8.88;;;15.10;99.90;;;;;;5070255;28;20041;-60
2022/10/28 06:17:21;;;;;;;19.35;7.70;;;15.10;99.90;;;;;;5067468;28;20058;-58
2022/10/28 06:19:46;;;;;;;16.70;7.82;;;15.10;99.90;;;;;;5068281;28;20063;-59
2022/10/28 06:22:12;;;;;;;21.83;8.07;;;15.00;99.90;;;;;;5068751;28;20131;-57
2022/10/28 06:24:37;;;;;;;18.90;8.48;;;15.10;99.90;;;;;;5034305;28;20044;-57
2022/10/28 06:27:03;;;;;;;17.08;8.38;;;15.00;99.90;;;;;;5064544;28;20032;-58
2022/10/28 06:29:31;;;;;;;17.38;7.97;;;15.00;99.90;;;;;;5064173;28;20041;-57
2022/10/28 06:31:57;;;;;;;15.07;8.40;;;15.00;99.90;;;;;;5063709;28;20049;-58
2022/10/28 06:34:22;;;;;;;16.83;8.10;;;15.00;99.90;;;;;;5064605;28;20348;-57
2022/10/28 06:36:48;;;;;;;14.90;8.35;;;15.10;99.90;;;;;;5066867;28;20032;-57
2022/10/28 06:39:14;;;;;;;15.98;7.65;;;15.10;99.90;;;;;;5069410;28;20040;-58
2022/10/28 06:41:39;;;;;;;14.05;7.72;;;15.10;99.90;;;;;;5071040;28;20041;-56
2022/10/28 06:44:05;;;;;;;14.32;7.63;;;15.10;99.90;;;;;;5067821;28;20435;-59
2022/10/28 06:46:31;;;;;;;13.38;8.40;;;15.10;99.90;;;;;;5068527;28;20045;-56
2022/10/28 06:48:56;;;;;;;17.90;8.95;;;15.10;99.90;;;;;;5066730;28;20052;-57
2022/10/28 06:51:22;;;;;;;21.02;8.23;;;15.10;99.90;;;;;;5067901;28;20029;-57
2022/10/28 06:53:50;;;;;;;15.82;8.07;;;15.20;99.90;;;;;;5066684;28;20051;-57
2022/10/28 06:56:15;;;;;;;17.02;8.85;;;15.20;99.90;;;;;;5065693;28;20041;-55
2022/10/28 06:58:41;;;;;;;19.67;8.60;;;15.10;99.90;;;;;;5069685;28;20082;-56
2022/10/28 07:01:07;;;;;;;15.27;7.85;;;15.10;99.90;;;;;;5066535;28;20045;-58
2022/10/28 07:03:32;;;;;;;16.20;8.77;;;15.20;99.90;;;;;;5067271;28;20127;-57
2022/10/28 07:05:58;;;;;;;19.38;8.02;;;15.20;99.90;;;;;;5067120;28;20146;-59
2022/10/28 07:08:26;;;;;;;23.17;8.60;;;15.20;99.90;;;;;;5065104;28;20051;-57
2022/10/28 07:10:55;;;;;;;18.50;7.97;;;15.30;99.90;;;;;;5065155;28;20048;-55
2022/10/28 07:13:22;;;;;;;19.30;7.97;;;15.30;99.90;;;;;;5048082;28;20432;-58
2022/10/28 07:15:58;;;;;;;17.40;8.77;;;15.40;99.90;;;;;;5068617;28;20744;-60
2022/10/28 07:18:26;;;;;;;14.27;7.88;;;15.40;99.90;;;;;;5068372;28;20102;-56
2022/10/28 07:20:52;;;;;;;14.20;7.53;;;15.50;99.90;;;;;;5073280;28;20059;-60
2022/10/28 07:23:18;;;;;;;15.95;7.68;;;15.50;99.90;;;;;;5071365;28;20036;-60
2022/10/28 07:25:51;;;;;;;17.83;7.70;;;15.60;99.90;;;;;;5070674;28;20040;-59
2022/10/28 07:28:17;;;;;;;13.40;7.90;;;15.70;99.90;;;;;;5071591;28;20052;-59
2022/10/28 07:30:43;;;;;;;14.70;7.28;;;15.80;99.90;;;;;;5073372;28;20047;-61
2022/10/28 07:33:08;;;;;;;16.25;7.38;;;15.80;99.90;;;;;;5073432;28;20438;-58
2022/10/28 07:35:34;;;;;;;16.98;7.25;;;15.90;99.90;;;;;;5072525;28;20032;-60
2022/10/28 07:37:59;;;;;;;14.95;7.20;;;16.00;99.90;;;;;;5071841;28;20039;-60
2022/10/28 07:40:25;;;;;;;15.60;7.45;;;16.10;99.90;;;;;;5070277;28;20055;-58
2022/10/28 07:42:51;;;;;;;18.40;7.70;;;16.10;99.90;;;;;;5070155;28;20128;-60
2022/10/28 07:45:17;;;;;;;16.48;7.47;;;16.20;99.90;;;;;;5073108;28;20119;-59
2022/10/28 07:47:43;;;;;;;17.70;7.07;;;16.30;99.90;;;;;;5073879;28;20140;-59
2022/10/28 07:50:10;;;;;;;19.13;7.93;;;16.50;99.90;;;;;;5071791;28;20032;-58
2022/10/28 07:52:36;;;;;;;18.88;7.53;;;16.50;99.90;;;;;;5072201;28;20421;-60
2022/10/28 07:55:03;;;;;;;13.57;7.47;;;16.50;99.90;;;;;;5070687;28;20537;-58
2022/10/28 07:57:29;;;;;;;18.25;7.82;;;16.60;99.90;;;;;;5071902;28;20474;-59
2022/10/28 07:59:54;;;;;;;16.15;7.60;;;16.60;99.90;;;;;;5068363;28;20098;-58
2022/10/28 08:02:22;;;;;;;11.77;7.35;;;16.70;99.90;;;;;;5071022;28;20060;-58
2022/10/28 08:04:48;;;;;;;18.90;7.68;;;16.70;99.90;;;;;;5049612;28;20086;-59
2022/10/28 08:07:14;;;;;;;12.88;7.20;;;16.80;99.90;;;;;;5072528;28;20072;-59
2022/10/28 08:09:39;;;;;;;18.27;7.53;;;16.80;99.90;;;;;;5071384;28;20054;-58
2022/10/28 08:12:06;;;;;;;14.60;7.18;;;16.80;99.90;;;;;;5072660;28;20490;-58
2022/10/28 08:14:32;;;;;;;14.38;7.22;;;16.90;99.90;;;;;;5074222;28;20120;-59
2022/10/28 08:16:58;;;;;;;17.90;7.47;;;;;;;;;;5069817;28;20115;-59
2022/10/28 08:19:23;;;;;;;15.13;7.22;;;16.90;99.90;;;;;;5072041;28;20058;-60
2022/10/28 08:21:49;;;;;;;17.00;7.03;;;17.00;99.90;;;;;;5053402;28;20058;-58
2022/10/28 08:24:15;;;;;;;14.82;6.55;;;17.00;99.90;;;;;;5072159;28;20045;-56
2022/10/28 08:26:40;;;;;;;16.55;7.45;;;17.10;99.90;;;;;;5074380;28;20108;-58
2022/10/28 08:29:06;;;;;;;15.05;6.88;;;17.20;99.90;;;;;;5071938;28;20135;-55
2022/10/28 08:31:32;;;;;;;19.52;6.95;;;17.30;99.90;;;;;;5072313;28;20120;-53
2022/10/28 08:33:58;;;;;;;20.98;7.25;;;17.30;99.90;;;;;;5056802;28;20469;-54
2022/10/28 08:36:24;;;;;;;12.00;6.32;;;17.30;99.90;;;;;;5073629;28;20045;-58
2022/10/28 08:38:49;;;;;;;12.90;6.72;;;17.40;99.90;;;;;;5077636;28;20093;-58
2022/10/28 08:41:36;;;;;;;15.43;6.57;;;17.40;99.90;;;;;;5077812;28;20037;-57
2022/10/28 08:44:01;;;;;;;13.95;6.50;;;17.40;99.90;;;;;;5074747;28;20078;-57
2022/10/28 08:46:36;;;;;;;17.38;6.93;;;17.60;99.90;;;;;;5072473;28;20071;-60
2022/10/28 08:49:08;;;;;;;18.42;6.72;;;17.60;99.90;;;;;;5074500;28;20051;-56
2022/10/28 08:51:55;;;;;;;16.85;6.70;;;17.70;99.90;;;;;;5067475;28;20123;-55
2022/10/28 08:54:34;;;;;;;15.70;6.75;;;17.80;99.90;;;;;;5073705;28;20094;-59
2022/10/28 08:57:03;;;;;;;19.45;6.57;;;18.10;99.90;;;;;;5070986;28;20041;-59
2022/10/28 08:59:37;;;;;;;18.23;6.55;;;18.10;99.90;;;;;;5072608;28;20048;-60
2022/10/28 09:02:24;;;;;;;16.92;6.95;;;18.40;99.90;;;;;;5071763;28;20049;-59
2022/10/28 09:05:21;;;;;;;15.23;7.25;;;18.40;99.90;;;;;;5072757;28;20044;-59
2022/10/28 09:07:46;;;;;;;17.50;6.87;;;18.50;99.90;;;;;;5054832;28;20060;-60
2022/10/28 09:10:16;;;;;;;18.50;6.80;;;18.60;99.90;;;;;;5073870;28;20110;-59
2022/10/28 09:12:57;;;;;;;16.13;7.18;;;18.70;99.90;;;;;;5073884;28;20098;-59
2022/10/28 09:15:22;;;;;;;16.23;6.20;;;18.80;99.90;;;;;;5072396;28;20477;-58
2022/10/28 09:18:14;;;;;;;11.82;6.15;;;18.80;99.90;;;;;;5073332;28;20047;-60
2022/10/28 09:20:51;;;;;;;18.92;6.28;;;18.90;99.90;;;;;;5055280;28;20037;-58
2022/10/28 09:23:21;;;;;;;11.60;6.45;;;19.10;99.90;;;;;;5072510;28;20075;-59
2022/10/28 09:25:58;;;;;;;15.35;6.40;;;19.10;99.90;;;;;;5074323;28;20441;-60
2022/10/28 09:28:43;;;;;;;13.75;6.68;;;19.10;99.90;;;;;;5072904;28;20097;-55
2022/10/28 09:31:27;;;;;;;16.77;7.28;;;19.20;99.90;;;;;;5072441;28;20044;-59
2022/10/28 09:34:05;;;;;;;14.63;6.05;;;19.20;99.90;;;;;;5072758;28;20029;-59
2022/10/28 09:36:57;;;;;;;16.13;5.97;;;19.20;99.90;;;;;;5068373;28;20089;-58
2022/10/28 09:39:28;;;;;;;16.33;6.30;;;19.20;99.90;;;;;;4978380;28;20062;-57
2022/10/28 09:41:56;;;;;;;15.55;6.30;;;19.20;99.90;;;;;;4971285;28;20057;-59
2022/10/28 09:44:42;;;;;;;15.38;6.00;;;19.30;99.90;;;;;;4972449;28;20567;-59
2022/10/28 09:47:16;;;;;;;13.45;6.30;;;19.20;99.90;;;;;;4955300;28;20134;-60
2022/10/28 09:49:44;;;;;;;12.80;6.25;;;19.30;99.90;;;;;;4955374;28;20069;-60
2022/10/28 09:52:21;;;;;;;14.88;6.68;;;19.30;99.90;;;;;;4971528;28;20096;-60
2022/10/28 09:54:52;;;;;;;13.65;5.88;;;19.30;99.90;;;;;;4972462;28;20046;-60
2022/10/28 09:57:18;;;;;;;14.55;6.10;;;19.30;99.90;;;;;;4969465;28;20190;-58
2022/10/28 09:59:45;;;;;;;19.38;6.05;;;19.30;99.90;;;;;;4968850;28;20047;-59
2022/10/28 10:02:22;;;;;;;16.50;6.68;;;19.40;99.90;;;;;;4967250;28;20097;-59
2022/10/28 10:04:48;;;;;;;13.90;5.78;;;19.40;99.90;;;;;;4971315;28;20424;-58
2022/10/28 10:07:23;;;;;;;18.73;5.65;;;19.40;99.90;;;;;;4970250;28;20047;-59
2022/10/28 10:09:48;;;;;;;13.52;5.88;;;19.50;99.90;;;;;;4966211;28;20098;-56
2022/10/28 10:12:14;;;;;;;12.93;5.60;;;19.50;99.90;;;;;;4971053;28;20078;-55
2022/10/28 10:14:47;;;;;;;15.15;5.72;;;19.60;99.90;;;;;;4971477;28;20046;-57
2022/10/28 10:17:25;;;;;;;17.55;6.43;;;19.70;99.90;;;;;;5054444;28;21211;-57
2022/10/28 10:20:08;;;;;;;14.70;6.03;;;19.70;99.90;;;;;;5067700;28;20045;-56
2022/10/28 10:22:42;;;;;;;14.07;5.32;;;19.70;99.90;;;;;;5069432;28;20045;-56
2022/10/28 10:25:17;;;;;;;13.85;5.53;;;19.80;99.90;;;;;;5048706;28;20049;-56
2022/10/28 10:27:53;;;;;;;14.10;5.55;;;19.80;99.90;;;;;;5070133;28;20048;-58
2022/10/28 10:30:30;;;;;;;11.93;4.82;;;20.00;99.90;;;;;;5067927;28;20040;-56
2022/10/28 10:32:57;;;;;;;13.90;5.55;;;20.10;99.90;;;;;;5064188;28;20036;-55
2022/10/28 10:35:27;;;;;;;19.35;5.68;;;20.30;99.90;;;;;;5067815;28;20036;-57
2022/10/28 10:37:56;;;;;;;13.27;4.80;;;20.40;99.90;;;;;;5065361;28;20597;-57
2022/10/28 10:40:32;;;;;;;11.20;4.53;;;20.50;99.90;;;;;;5067343;28;20049;-58
2022/10/28 10:43:16;;;;;;;11.15;5.28;;;20.50;99.90;;;;;;5068061;28;20055;-58
2022/10/28 10:46:03;;;;;;;15.40;5.22;;;20.60;99.90;;;;;;5066360;28;20040;-53
2022/10/28 10:48:31;;;;;;;13.18;4.63;;;20.60;99.90;;;;;;5048142;28;20408;-57
2022/10/28 10:50:57;;;;;;;13.45;4.53;;;20.60;99.90;;;;;;5067773;28;20094;-58
2022/10/28 10:53:27;;;;;;;14.05;4.93;;;20.70;99.90;;;;;;5066459;28;20044;-57
2022/10/28 10:55:54;;;;;;;14.25;4.93;;;20.80;99.90;;;;;;5070124;28;20038;-57
2022/10/28 10:58:23;;;;;;;12.00;5.13;;;20.80;99.90;;;;;;5070746;28;20040;-56
2022/10/28 11:00:51;;;;;;;16.67;5.43;;;20.80;99.90;;;;;;5070819;28;20051;-57
2022/10/28 11:03:25;;;;;;;13.43;4.97;;;20.80;99.90;;;;;;5069503;28;20397;-57
2022/10/28 11:05:54;;;;;;;14.93;5.55;;;20.80;99.90;;;;;;5055644;28;20047;-56
2022/10/28 11:08:38;;;;;;;11.07;5.10;;;20.80;99.90;;;;;;5075177;28;20500;-56
2022/10/28 11:11:09;;;;;;;12.48;5.10;;;20.80;99.90;;;;;;5071970;28;20040;-57
2022/10/28 11:13:36;;;;;;;13.95;5.35;;;20.80;99.90;;;;;;5074902;28;20051;-57
2022/10/28 11:16:24;;;;;;;15.13;4.65;;;20.80;99.90;;;;;;5075430;28;20048;-57
2022/10/28 11:18:51;;;;;;;12.18;5.03;;;20.70;99.90;;;;;;5074578;28;20048;-57
2022/10/28 11:21:46;;;;;;;13.50;5.70;;;20.80;99.90;;;;;;5075101;28;20051;-55
2022/10/28 11:24:36;;;;;;;12.82;5.28;;;20.70;99.90;;;;;;5075914;28;20051;-58
2022/10/28 11:27:12;;;;;;;12.32;5.32;;;20.70;99.90;;;;;;5070012;28;20145;-56
2022/10/28 11:29:37;;;;;;;13.98;4.93;;;20.80;99.90;;;;;;5074290;28;20057;-55
2022/10/28 11:32:21;;;;;;;14.23;5.60;;;20.90;99.90;;;;;;5074278;28;20206;-56
2022/10/28 11:35:14;;;;;;;14.60;5.15;;;20.90;99.90;;;;;;5068610;28;20037;-57
2022/10/28 11:38:02;;;;;;;17.25;4.95;;;21.00;99.90;;;;;;5066576;28;20509;-57
2022/10/28 11:40:59;;;;;;;15.20;4.97;;;21.00;99.90;;;;;;5052662;28;20053;-56
2022/10/28 11:43:37;;;;;;;13.20;5.32;;;20.90;99.90;;;;;;5073837;28;20049;-56
2022/10/28 11:46:40;;;;;;;15.40;5.15;;;21.00;99.90;;;;;;5062257;28;20059;-56
2022/10/28 11:49:05;;;;;;;14.48;5.53;;;21.10;99.90;;;;;;5072929;28;20041;-56
2022/10/28 11:51:50;;;;;;;13.73;4.78;;;21.20;99.90;;;;;;5072436;28;20190;-55
2022/10/28 11:54:41;;;;;;;12.00;5.47;;;21.30;99.90;;;;;;5073011;28;20124;-56
2022/10/28 11:57:33;;;;;;;14.80;5.28;;;21.40;99.90;;;;;;5071176;28;20042;-55
2022/10/28 12:00:40;;;;;;;16.25;5.28;;;21.40;99.90;;;;;;4993042;28;20133;-54
2022/10/28 12:03:24;;;;;;;15.45;5.18;;;21.40;99.90;;;;;;4979287;28;20050;-55
2022/10/28 12:06:02;;;;;;;14.80;5.57;;;21.40;99.90;;;;;;4991050;28;20046;-55
2022/10/28 12:08:34;;;;;;;15.02;6.03;;;21.40;99.90;;;;;;4973368;28;20061;-55
2022/10/28 12:11:12;;;;;;;14.65;5.18;;;21.50;99.90;;;;;;4990422;28;20050;-53
2022/10/28 12:13:52;;;;;;;15.63;5.68;;;21.50;99.90;;;;;;4991352;28;20062;-53
2022/10/28 12:16:39;;;;;;;12.63;5.30;;;21.50;99.90;;;;;;4991601;28;20050;-53
2022/10/28 12:19:31;;;;;;;15.07;5.82;;;21.50;99.90;;;;;;4991450;28;20049;-56
2022/10/28 12:22:08;;;;;;;10.07;4.93;;;21.50;99.90;;;;;;4994546;28;20133;-56
2022/10/28 12:24:36;;;;;;;15.27;5.82;;;21.60;99.90;;;;;;4996430;28;20046;-57
2022/10/28 12:27:12;;;;;;;17.23;6.03;;;21.60;99.90;;;;;;4990984;28;20102;-57
2022/10/28 12:29:43;;;;;;;15.67;5.07;;;21.70;99.90;;;;;;4987159;28;20070;-57
2022/10/28 12:32:12;;;;;;;15.77;5.80;;;21.80;99.90;;;;;;4986065;28;20446;-56
2022/10/28 12:34:45;;;;;;;19.65;5.90;;;21.70;99.90;;;;;;4985178;28;20046;-56
2022/10/28 12:37:23;;;;;;;13.80;5.63;;;21.70;99.90;;;;;;5035671;28;20049;-56
2022/10/28 12:40:20;;;;;;;16.27;5.47;;;21.70;99.90;;;;;;5071277;28;20129;-54
2022/10/28 12:43:05;;;;;;;17.48;5.57;;;21.70;99.90;;;;;;5069262;28;20115;-53
2022/10/28 12:45:31;;;;;;;12.68;4.97;;;21.60;99.90;;;;;;5071396;28;20048;-54
2022/10/28 12:48:21;;;;;;;16.75;5.43;;;21.60;99.90;;;;;;5072156;28;20527;-55
2022/10/28 12:50:55;;;;;;;13.50;5.13;;;21.60;99.90;;;;;;5071938;28;20082;-53
2022/10/28 12:53:32;;;;;;;14.10;5.07;;;21.50;99.90;;;;;;5062434;28;20134;-53
2022/10/28 12:56:06;;;;;;;14.00;5.53;;;21.50;99.90;;;;;;5073543;28;20059;-52
2022/10/28 12:58:37;;;;;;;12.65;5.25;;;21.50;99.90;;;;;;5074404;28;20052;-55